createdAt,value
2017-12-17T00:00:56.921Z,-4.20
2017-12-17T00:01:56.788Z,-4.15
2017-12-17T00:02:56.655Z,-4.20
2017-12-17T00:03:56.531Z,-4.25
2017-12-17T00:04:56.387Z,-4.26
2017-12-17T00:05:56.239Z,-4.25
2017-12-17T00:06:56.120Z,-4.19
2017-12-17T00:07:55.991Z,-4.15
2017-12-17T00:08:55.855Z,-4.22
2017-12-17T00:09:55.739Z,-4.20
2017-12-17T00:10:55.578Z,-4.15
2017-12-17T00:11:55.439Z,-4.22
2017-12-17T00:12:55.319Z,-4.22
2017-12-17T00:13:55.176Z,-4.14
2017-12-17T00:14:55.045Z,-4.19
2017-12-17T00:15:54.905Z,-4.15
2017-12-17T00:16:54.782Z,-4.08
2017-12-17T00:17:54.630Z,-4.09
2017-12-17T00:18:54.517Z,-4.19
2017-12-17T00:19:54.375Z,-4.22
2017-12-17T00:20:54.237Z,-4.12
2017-12-17T00:21:54.105Z,-4.09
2017-12-17T00:22:53.969Z,-4.08
2017-12-17T00:23:53.808Z,-4.05
2017-12-17T00:24:53.698Z,-4.04
2017-12-17T00:25:53.563Z,-4.01
2017-12-17T00:26:53.440Z,-4.18
2017-12-17T00:27:53.296Z,-3.98
2017-12-17T00:28:53.164Z,-4.02
2017-12-17T00:29:53.027Z,-3.94
2017-12-17T00:30:52.898Z,-3.98
2017-12-17T00:31:52.764Z,-4.01
2017-12-17T00:32:52.632Z,-3.91
2017-12-17T00:33:52.503Z,-3.91
2017-12-17T00:34:52.361Z,-3.90
2017-12-17T00:35:52.221Z,-4.02
2017-12-17T00:36:52.088Z,-4.02
2017-12-17T00:37:51.959Z,-3.99
2017-12-17T00:38:51.812Z,-3.98
2017-12-17T00:39:51.691Z,-4.07
2017-12-17T00:40:51.545Z,-4.23
2017-12-17T00:41:51.424Z,-4.36
2017-12-17T00:42:51.278Z,-4.32
2017-12-17T00:43:51.147Z,-4.32
2017-12-17T00:44:51.022Z,-4.36
2017-12-17T00:45:50.884Z,-4.30
2017-12-17T00:46:50.744Z,-4.36
2017-12-17T00:47:50.619Z,-4.36
2017-12-17T00:48:50.480Z,-4.25
2017-12-17T00:49:50.349Z,-4.19
2017-12-17T00:50:50.200Z,-4.33
2017-12-17T00:51:50.077Z,-4.33
2017-12-17T00:52:49.930Z,-4.33
2017-12-17T00:53:49.816Z,-4.22
2017-12-17T00:54:49.672Z,-4.19
2017-12-17T00:55:50.135Z,-4.23
2017-12-17T00:56:49.382Z,-4.20
2017-12-17T00:57:49.264Z,-4.15
2017-12-17T00:58:49.140Z,-4.15
2017-12-17T00:59:49.006Z,-4.12
2017-12-17T01:00:49.641Z,-4.23
2017-12-17T01:01:48.744Z,-4.30
2017-12-17T01:02:48.595Z,-4.37
2017-12-17T01:03:48.458Z,-4.33
2017-12-17T01:04:48.313Z,-4.32
2017-12-17T01:05:48.187Z,-4.33
2017-12-17T01:06:48.061Z,-4.29
2017-12-17T01:07:47.922Z,-4.25
2017-12-17T01:08:47.796Z,-4.25
2017-12-17T01:09:47.664Z,-4.22
2017-12-17T01:10:47.514Z,-4.22
2017-12-17T01:11:47.379Z,-4.32
2017-12-17T01:12:47.250Z,-4.47
2017-12-17T01:13:47.118Z,-4.44
2017-12-17T01:14:46.987Z,-4.37
2017-12-17T01:15:46.838Z,-4.43
2017-12-17T01:16:46.714Z,-4.46
2017-12-17T01:17:46.580Z,-4.50
2017-12-17T01:18:46.456Z,-4.47
2017-12-17T01:19:46.320Z,-4.47
2017-12-17T01:20:46.170Z,-4.48
2017-12-17T01:21:46.051Z,-4.43
2017-12-17T01:22:45.914Z,-4.32
2017-12-17T01:23:45.752Z,-4.36
2017-12-17T01:24:45.621Z,-4.36
2017-12-17T01:25:45.502Z,-4.37
2017-12-17T01:26:45.384Z,-4.33
2017-12-17T01:27:45.250Z,-4.38
2017-12-17T01:28:45.096Z,-4.37
2017-12-17T01:29:44.968Z,-4.33
2017-12-17T01:30:44.799Z,-4.36
2017-12-17T01:31:44.719Z,-4.25
2017-12-17T01:32:44.527Z,-4.19
2017-12-17T01:33:44.388Z,-4.28
2017-12-17T01:34:44.276Z,-4.23
2017-12-17T01:35:44.121Z,-4.22
2017-12-17T01:36:43.985Z,-4.23
2017-12-17T01:37:43.852Z,-4.28
2017-12-17T01:38:43.717Z,-4.37
2017-12-17T01:39:43.595Z,-4.33
2017-12-17T01:40:43.466Z,-4.36
2017-12-17T01:41:43.314Z,-4.38
2017-12-17T01:42:43.179Z,-4.23
2017-12-17T01:43:43.045Z,-4.30
2017-12-17T01:44:42.969Z,-4.33
2017-12-17T01:45:42.776Z,-4.30
2017-12-17T01:46:42.692Z,-4.40
2017-12-17T01:47:42.549Z,-4.33
2017-12-17T01:48:42.417Z,-4.33
2017-12-17T01:49:42.238Z,-4.33
2017-12-17T01:50:42.149Z,-4.36
2017-12-17T01:51:42.021Z,-4.26
2017-12-17T01:52:41.887Z,-4.29
2017-12-17T01:53:41.737Z,-4.22
2017-12-17T01:54:41.620Z,-4.19
2017-12-17T01:55:41.475Z,-4.20
2017-12-17T01:56:41.344Z,-4.22
2017-12-17T01:57:41.161Z,-4.15
2017-12-17T01:58:41.069Z,-4.18
2017-12-17T01:59:40.946Z,-4.15
2017-12-17T02:00:40.755Z,-4.23
2017-12-17T02:01:40.623Z,-4.33
2017-12-17T02:02:40.541Z,-4.47
2017-12-17T02:03:40.401Z,-4.48
2017-12-17T02:04:40.219Z,-4.44
2017-12-17T02:05:40.089Z,-4.43
2017-12-17T02:06:39.953Z,-4.44
2017-12-17T02:07:39.857Z,-4.37
2017-12-17T02:08:39.720Z,-4.44
2017-12-17T02:09:39.550Z,-4.48
2017-12-17T02:10:39.465Z,-4.48
2017-12-17T02:11:39.329Z,-4.37
2017-12-17T02:12:39.143Z,-4.37
2017-12-17T02:13:39.010Z,-4.36
2017-12-17T02:14:38.916Z,-4.22
2017-12-17T02:15:38.741Z,-4.23
2017-12-17T02:16:38.655Z,-4.25
2017-12-17T02:17:38.472Z,-4.28
2017-12-17T02:18:38.336Z,-4.25
2017-12-17T02:19:38.204Z,-4.23
2017-12-17T02:20:38.107Z,-4.25
2017-12-17T02:21:37.977Z,-4.15
2017-12-17T02:22:37.844Z,-4.12
2017-12-17T02:23:37.706Z,-4.22
2017-12-17T02:24:37.536Z,-4.20
2017-12-17T02:25:37.400Z,-4.28
2017-12-17T02:26:37.315Z,-4.28
2017-12-17T02:27:37.181Z,-4.26
2017-12-17T02:28:36.994Z,-4.38
2017-12-17T02:29:36.917Z,-4.32
2017-12-17T02:30:36.724Z,-4.47
2017-12-17T02:31:36.594Z,-4.55
2017-12-17T02:32:36.458Z,-4.62
2017-12-17T02:33:36.378Z,-4.62
2017-12-17T02:34:36.241Z,-4.61
2017-12-17T02:35:36.088Z,-4.59
2017-12-17T02:36:35.923Z,-4.62
2017-12-17T02:37:35.816Z,-4.50
2017-12-17T02:38:35.693Z,-4.51
2017-12-17T02:39:35.559Z,-4.50
2017-12-17T02:40:35.428Z,-4.62
2017-12-17T02:41:35.286Z,-4.65
2017-12-17T02:42:35.149Z,-4.75
2017-12-17T02:43:35.021Z,-4.64
2017-12-17T02:44:34.846Z,-4.73
2017-12-17T02:45:34.763Z,-4.76
2017-12-17T02:46:34.575Z,-4.83
2017-12-17T02:47:34.443Z,-4.80
2017-12-17T02:48:34.340Z,-4.71
2017-12-17T02:49:34.225Z,-4.68
2017-12-17T02:50:34.072Z,-4.65
2017-12-17T02:51:33.906Z,-4.64
2017-12-17T02:52:33.814Z,-4.61
2017-12-17T02:53:33.673Z,-4.61
2017-12-17T02:54:33.501Z,-4.50
2017-12-17T02:55:33.366Z,-4.48
2017-12-17T02:56:33.232Z,-4.47
2017-12-17T02:57:33.099Z,-4.48
2017-12-17T02:58:32.961Z,-4.61
2017-12-17T02:59:32.829Z,-4.58
2017-12-17T03:00:33.651Z,-4.54
2017-12-17T03:01:32.611Z,-4.48
2017-12-17T03:02:32.478Z,-4.54
2017-12-17T03:03:32.329Z,-4.43
2017-12-17T03:04:32.209Z,-4.51
2017-12-17T03:05:32.018Z,-4.68
2017-12-17T03:06:31.939Z,-4.75
2017-12-17T03:07:31.749Z,-4.73
2017-12-17T03:08:31.649Z,-4.64
2017-12-17T03:09:31.482Z,-4.64
2017-12-17T03:10:31.349Z,-4.61
2017-12-17T03:11:31.220Z,-4.66
2017-12-17T03:12:31.133Z,-4.61
2017-12-17T03:13:30.944Z,-4.62
2017-12-17T03:14:30.880Z,-4.55
2017-12-17T03:15:30.679Z,-4.62
2017-12-17T03:16:30.540Z,-4.58
2017-12-17T03:17:30.443Z,-4.50
2017-12-17T03:18:30.326Z,-4.61
2017-12-17T03:19:30.138Z,-4.61
2017-12-17T03:20:30.065Z,-4.61
2017-12-17T03:21:29.870Z,-4.66
2017-12-17T03:22:29.735Z,-4.68
2017-12-17T03:23:29.666Z,-4.76
2017-12-17T03:24:29.510Z,-4.75
2017-12-17T03:25:36.477Z,-4.64
2017-12-17T03:27:22.004Z,-4.59
2017-12-17T03:28:21.861Z,-4.59
2017-12-17T03:30:14.527Z,-4.62
2017-12-17T03:31:14.328Z,-4.64
2017-12-17T03:33:07.004Z,-4.55
2017-12-17T03:34:06.883Z,-4.64
2017-12-17T03:35:59.466Z,-4.48
2017-12-17T03:36:59.327Z,-4.50
2017-12-17T03:38:52.000Z,-4.47
2017-12-17T03:39:51.824Z,-4.41
2017-12-17T03:41:45.347Z,-4.41
2017-12-17T03:42:45.230Z,-4.44
2017-12-17T03:44:37.853Z,-4.41
2017-12-17T03:45:37.677Z,-4.36
2017-12-17T03:47:31.264Z,-4.46
2017-12-17T03:48:31.076Z,-4.32
2017-12-17T03:50:23.728Z,-4.32
2017-12-17T03:51:23.553Z,-4.33
2017-12-17T03:53:16.227Z,-4.38
2017-12-17T03:54:16.023Z,-4.32
2017-12-17T03:56:08.694Z,-4.33
2017-12-17T03:57:08.520Z,-4.30
2017-12-17T03:59:01.198Z,-4.37
2017-12-17T04:00:01.022Z,-4.33
2017-12-17T04:01:53.760Z,-4.26
2017-12-17T04:02:53.523Z,-4.22
2017-12-17T04:04:46.165Z,-4.25
2017-12-17T04:05:46.076Z,-4.30
2017-12-17T04:07:39.287Z,-4.32
2017-12-17T04:08:38.565Z,-4.36
2017-12-17T04:10:31.212Z,-4.32
2017-12-17T04:11:31.026Z,-4.32
2017-12-17T04:13:23.763Z,-4.25
2017-12-17T04:14:23.565Z,-4.25
2017-12-17T04:16:16.227Z,-4.22
2017-12-17T04:17:16.062Z,-4.25
2017-12-17T04:19:09.614Z,-4.18
2017-12-17T04:20:09.414Z,-4.20
2017-12-17T04:22:02.025Z,-4.20
2017-12-17T04:23:01.881Z,-4.22
2017-12-17T04:24:54.561Z,-4.28
2017-12-17T04:25:54.406Z,-4.28
2017-12-17T04:27:47.019Z,-4.33
2017-12-17T04:28:46.933Z,-4.36
2017-12-17T04:30:39.549Z,-4.32
2017-12-17T04:31:40.101Z,-4.36
2017-12-17T04:33:32.943Z,-4.32
2017-12-17T04:34:32.728Z,-4.29
2017-12-17T04:36:25.370Z,-4.30
2017-12-17T04:37:25.259Z,-4.30
2017-12-17T04:39:17.904Z,-4.28
2017-12-17T04:40:17.734Z,-4.30
2017-12-17T04:42:10.411Z,-4.37
2017-12-17T04:43:10.228Z,-4.43
2017-12-17T04:45:02.925Z,-4.48
2017-12-17T04:46:02.727Z,-4.47
2017-12-17T04:47:55.406Z,-4.40
2017-12-17T04:48:55.230Z,-4.40
2017-12-17T04:50:47.932Z,-4.33
2017-12-17T04:51:47.737Z,-4.30
2017-12-17T04:53:40.442Z,-4.32
2017-12-17T04:54:40.274Z,-4.23
2017-12-17T04:56:32.872Z,-4.48
2017-12-17T04:57:32.736Z,-4.59
2017-12-17T04:59:25.412Z,-4.62
2017-12-17T05:00:25.231Z,-4.61
2017-12-17T05:02:17.989Z,-4.61
2017-12-17T05:03:17.723Z,-4.61
2017-12-17T05:05:10.409Z,-4.43
2017-12-17T05:06:10.257Z,-4.64
2017-12-17T05:08:02.869Z,-4.47
2017-12-17T05:09:02.725Z,-4.48
2017-12-17T05:10:55.412Z,-4.46
2017-12-17T05:11:55.256Z,-4.47
2017-12-17T05:13:47.915Z,-4.46
2017-12-17T05:14:47.783Z,-4.48
2017-12-17T05:16:40.508Z,-4.48
2017-12-17T05:17:40.415Z,-4.50
2017-12-17T05:19:33.018Z,-4.44
2017-12-17T05:20:33.561Z,-4.48
2017-12-17T05:22:25.540Z,-4.50
2017-12-17T05:23:25.386Z,-4.44
2017-12-17T05:25:17.981Z,-4.64
2017-12-17T05:26:17.834Z,-4.61
2017-12-17T05:28:11.044Z,-4.44
2017-12-17T05:29:10.362Z,-4.48
2017-12-17T05:31:03.265Z,-4.59
2017-12-17T05:32:03.123Z,-4.57
2017-12-17T05:33:55.857Z,-4.77
2017-12-17T05:34:55.622Z,-4.65
2017-12-17T05:36:48.321Z,-4.68
2017-12-17T05:37:48.150Z,-4.61
2017-12-17T05:39:40.844Z,-4.61
2017-12-17T05:40:40.679Z,-4.57
2017-12-17T05:42:33.266Z,-4.59
2017-12-17T05:43:33.127Z,-4.55
2017-12-17T05:45:25.809Z,-4.59
2017-12-17T05:46:25.622Z,-4.68
2017-12-17T05:48:18.320Z,-4.66
2017-12-17T05:49:18.173Z,-4.66
2017-12-17T05:51:10.795Z,-4.68
2017-12-17T05:52:10.678Z,-4.66
2017-12-17T05:54:03.291Z,-4.64
2017-12-17T05:55:03.163Z,-4.66
2017-12-17T05:56:55.801Z,-4.62
2017-12-17T05:57:55.657Z,-4.66
2017-12-17T05:59:48.313Z,-4.77
2017-12-17T06:00:48.115Z,-4.91
2017-12-17T06:02:40.794Z,-4.85
2017-12-17T06:03:40.670Z,-4.91
2017-12-17T06:05:33.413Z,-4.80
2017-12-17T06:06:33.118Z,-4.77
2017-12-17T06:08:25.823Z,-4.73
2017-12-17T06:09:25.671Z,-4.69
2017-12-17T06:11:18.943Z,-4.76
2017-12-17T06:12:18.161Z,-4.76
2017-12-17T06:14:10.784Z,-4.64
2017-12-17T06:15:10.624Z,-4.64
2017-12-17T06:17:03.297Z,-4.62
2017-12-17T06:18:03.122Z,-4.57
2017-12-17T06:19:55.762Z,-4.64
2017-12-17T06:20:55.620Z,-4.64
2017-12-17T06:22:48.290Z,-4.68
2017-12-17T06:23:48.126Z,-4.64
2017-12-17T06:25:40.767Z,-4.80
2017-12-17T06:26:40.628Z,-4.83
2017-12-17T06:28:33.293Z,-5.00
2017-12-17T06:29:33.121Z,-5.04
2017-12-17T06:31:25.758Z,-4.97
2017-12-17T06:32:25.616Z,-4.91
2017-12-17T06:34:18.302Z,-4.97
2017-12-17T06:35:18.116Z,-4.86
2017-12-17T06:37:10.762Z,-4.80
2017-12-17T06:38:10.614Z,-4.83
2017-12-17T06:40:03.300Z,-4.75
2017-12-17T06:41:03.116Z,-4.77
2017-12-17T06:42:55.755Z,-4.93
2017-12-17T06:43:55.615Z,-5.04
2017-12-17T06:45:48.297Z,-5.07
2017-12-17T06:46:48.113Z,-5.11
2017-12-17T06:48:40.760Z,-4.97
2017-12-17T06:49:40.616Z,-5.00
2017-12-17T06:51:33.299Z,-4.95
2017-12-17T06:52:33.113Z,-4.97
2017-12-17T06:54:25.763Z,-4.97
2017-12-17T06:55:25.624Z,-4.91
2017-12-17T06:57:18.291Z,-4.83
2017-12-17T06:58:18.116Z,-4.77
2017-12-17T07:00:10.764Z,-4.82
2017-12-17T07:01:10.622Z,-4.89
2017-12-17T07:03:03.296Z,-4.94
2017-12-17T07:04:03.123Z,-4.98
2017-12-17T07:05:55.937Z,-4.80
2017-12-17T07:06:55.630Z,-4.87
2017-12-17T07:08:48.264Z,-4.80
2017-12-17T07:09:48.122Z,-4.73
2017-12-17T07:11:41.659Z,-4.73
2017-12-17T07:12:41.475Z,-4.80
2017-12-17T07:14:34.116Z,-4.82
2017-12-17T07:15:33.973Z,-4.95
2017-12-17T07:17:26.657Z,-5.04
2017-12-17T07:18:26.471Z,-4.93
2017-12-17T07:20:19.161Z,-4.95
2017-12-17T07:21:18.973Z,-4.89
2017-12-17T07:23:26.683Z,-4.93
2017-12-17T07:24:26.540Z,-4.83
2017-12-17T07:26:19.214Z,-5.01
2017-12-17T07:27:19.038Z,-5.05
2017-12-17T07:29:11.701Z,-4.94
2017-12-17T07:30:11.546Z,-4.95
2017-12-17T07:32:04.372Z,-4.87
2017-12-17T07:33:04.158Z,-4.95
2017-12-17T07:34:56.681Z,-4.93
2017-12-17T07:35:56.540Z,-4.98
2017-12-17T07:37:49.210Z,-4.94
2017-12-17T07:38:49.036Z,-4.95
2017-12-17T07:40:41.678Z,-4.94
2017-12-17T07:41:41.536Z,-4.95
2017-12-17T07:43:49.295Z,-4.94
2017-12-17T07:44:49.113Z,-4.95
2017-12-17T07:46:41.751Z,-4.86
2017-12-17T07:47:41.608Z,-4.86
2017-12-17T07:49:34.292Z,-4.82
2017-12-17T07:50:34.108Z,-4.77
2017-12-17T07:52:26.753Z,-4.94
2017-12-17T07:53:26.613Z,-4.93
2017-12-17T07:55:20.139Z,-4.89
2017-12-17T07:56:19.964Z,-4.91
2017-12-17T07:58:12.604Z,-4.82
2017-12-17T07:59:12.463Z,-4.77
2017-12-17T08:01:05.132Z,-4.79
2017-12-17T08:02:04.963Z,-4.69
2017-12-17T08:03:57.647Z,-4.58
2017-12-17T08:04:57.463Z,-4.61
2017-12-17T08:07:05.175Z,-4.43
2017-12-17T08:08:05.032Z,-4.48
2017-12-17T08:09:57.730Z,-4.43
2017-12-17T08:10:57.540Z,-4.46
2017-12-17T08:12:50.176Z,-4.38
2017-12-17T08:13:50.046Z,-4.44
2017-12-17T08:15:42.716Z,-4.43
2017-12-17T08:16:42.554Z,-4.46
2017-12-17T08:18:35.176Z,-4.66
2017-12-17T08:19:35.034Z,-4.75
2017-12-17T08:21:27.723Z,-4.87
2017-12-17T08:22:27.542Z,-4.87
2017-12-17T08:24:20.190Z,-4.79
2017-12-17T08:25:20.041Z,-4.76
2017-12-17T08:26:19.908Z,-4.87
2017-12-17T08:27:19.772Z,-4.77
2017-12-17T08:28:19.640Z,-4.71
2017-12-17T08:29:19.505Z,-4.65
2017-12-17T08:30:19.369Z,-4.54
2017-12-17T08:31:19.233Z,-4.36
2017-12-17T08:32:19.101Z,-4.40
2017-12-17T08:33:18.965Z,-4.50
2017-12-17T08:34:18.828Z,-4.62
2017-12-17T08:35:18.780Z,-4.75
2017-12-17T08:36:18.569Z,-4.77
2017-12-17T08:37:18.428Z,-4.75
2017-12-17T08:38:18.294Z,-4.76
2017-12-17T08:39:18.157Z,-4.77
2017-12-17T08:40:18.020Z,-4.82
2017-12-17T08:41:17.888Z,-4.95
2017-12-17T08:42:17.817Z,-4.98
2017-12-17T08:43:17.616Z,-4.97
2017-12-17T08:44:17.481Z,-5.11
2017-12-17T08:45:17.348Z,-5.04
2017-12-17T08:46:17.214Z,-5.00
2017-12-17T08:47:17.077Z,-5.01
2017-12-17T08:48:16.942Z,-4.91
2017-12-17T08:49:16.810Z,-4.93
2017-12-17T08:50:16.672Z,-4.87
2017-12-17T08:51:16.541Z,-4.82
2017-12-17T08:52:16.402Z,-4.79
2017-12-17T08:53:16.269Z,-4.61
2017-12-17T08:54:16.133Z,-4.65
2017-12-17T08:55:16.000Z,-4.64
2017-12-17T08:56:15.862Z,-4.62
2017-12-17T08:57:15.753Z,-4.62
2017-12-17T08:58:15.593Z,-4.55
2017-12-17T08:59:15.458Z,-4.48
2017-12-17T09:00:15.323Z,-4.37
2017-12-17T09:01:15.189Z,-4.30
2017-12-17T09:02:15.124Z,-4.46
2017-12-17T09:03:14.919Z,-4.47
2017-12-17T09:04:14.785Z,-4.43
2017-12-17T09:05:14.659Z,-4.43
2017-12-17T09:06:14.515Z,-4.46
2017-12-17T09:07:14.380Z,-4.41
2017-12-17T09:08:14.244Z,-4.55
2017-12-17T09:09:14.136Z,-4.57
2017-12-17T09:10:13.975Z,-4.61
2017-12-17T09:11:13.843Z,-4.58
2017-12-17T09:12:13.709Z,-4.59
2017-12-17T09:13:13.576Z,-4.54
2017-12-17T09:14:13.435Z,-4.47
2017-12-17T09:15:13.303Z,-4.43
2017-12-17T09:16:13.165Z,-4.50
2017-12-17T09:17:13.032Z,-4.28
2017-12-17T09:18:12.896Z,-4.37
2017-12-17T09:19:12.760Z,-4.30
2017-12-17T09:20:12.628Z,-4.43
2017-12-17T09:21:12.493Z,-4.33
2017-12-17T09:22:12.356Z,-4.48
2017-12-17T09:23:12.227Z,-4.51
2017-12-17T09:24:12.090Z,-4.47
2017-12-17T09:25:11.953Z,-4.44
2017-12-17T09:26:11.826Z,-4.43
2017-12-17T09:27:11.688Z,-4.44
2017-12-17T09:28:11.549Z,-4.48
2017-12-17T09:29:11.416Z,-4.23
2017-12-17T09:30:11.281Z,-4.19
2017-12-17T09:31:11.147Z,-4.29
2017-12-17T09:32:11.014Z,-4.33
2017-12-17T09:33:10.902Z,-4.33
2017-12-17T09:34:10.789Z,-4.36
2017-12-17T09:35:10.609Z,-4.25
2017-12-17T09:36:10.476Z,-4.01
2017-12-17T09:37:10.343Z,-3.87
2017-12-17T09:38:10.208Z,-3.71
2017-12-17T09:39:10.129Z,-3.70
2017-12-17T09:40:09.941Z,-3.86
2017-12-17T09:41:09.805Z,-3.75
2017-12-17T09:42:09.686Z,-3.71
2017-12-17T09:43:09.535Z,-3.89
2017-12-17T09:44:09.408Z,-3.96
2017-12-17T09:45:09.424Z,-3.99
2017-12-17T09:46:09.134Z,-4.04
2017-12-17T09:47:09.002Z,-3.94
2017-12-17T09:48:08.867Z,-4.02
2017-12-17T09:49:08.733Z,-4.05
2017-12-17T09:50:08.599Z,-4.04
2017-12-17T09:51:08.465Z,-4.11
2017-12-17T09:52:08.330Z,-4.19
2017-12-17T09:53:08.199Z,-4.12
2017-12-17T09:54:08.063Z,-4.09
2017-12-17T09:55:07.928Z,-4.11
2017-12-17T09:56:07.793Z,-4.09
2017-12-17T09:57:07.660Z,-4.12
2017-12-17T09:58:07.526Z,-4.15
2017-12-17T09:59:07.391Z,-4.14
2017-12-17T10:00:07.259Z,-4.18
2017-12-17T10:01:07.122Z,-4.23
2017-12-17T10:02:06.989Z,-4.20
2017-12-17T10:03:06.854Z,-4.19
2017-12-17T10:04:06.720Z,-4.26
2017-12-17T10:05:06.585Z,-4.28
2017-12-17T10:06:06.452Z,-4.23
2017-12-17T10:07:06.316Z,-4.26
2017-12-17T10:08:06.233Z,-4.22
2017-12-17T10:09:06.051Z,-4.36
2017-12-17T10:10:05.913Z,-4.36
2017-12-17T10:11:05.780Z,-4.32
2017-12-17T10:12:05.659Z,-4.36
2017-12-17T10:13:05.511Z,-4.22
2017-12-17T10:14:05.377Z,-4.20
2017-12-17T10:15:05.243Z,-4.22
2017-12-17T10:16:05.106Z,-4.09
2017-12-17T10:17:04.972Z,-4.12
2017-12-17T10:18:04.834Z,-4.05
2017-12-17T10:19:04.711Z,-4.02
2017-12-17T10:20:04.566Z,-3.94
2017-12-17T10:21:04.433Z,-3.91
2017-12-17T10:22:04.299Z,-3.78
2017-12-17T10:23:04.165Z,-3.86
2017-12-17T10:24:04.027Z,-3.94
2017-12-17T10:25:03.901Z,-3.91
2017-12-17T10:26:03.762Z,-3.83
2017-12-17T10:27:03.627Z,-3.75
2017-12-17T10:28:03.493Z,-3.76
2017-12-17T10:29:03.437Z,-3.70
2017-12-17T10:30:03.237Z,-3.83
2017-12-17T10:31:03.088Z,-3.89
2017-12-17T10:32:02.959Z,-3.86
2017-12-17T10:33:02.821Z,-3.78
2017-12-17T10:34:02.686Z,-3.83
2017-12-17T10:35:02.552Z,-3.81
2017-12-17T10:36:02.420Z,-3.80
2017-12-17T10:37:02.300Z,-3.94
2017-12-17T10:38:02.152Z,-3.94
2017-12-17T10:39:02.017Z,-3.76
2017-12-17T10:40:01.913Z,-3.71
2017-12-17T10:41:01.749Z,-3.67
2017-12-17T10:42:01.630Z,-3.68
2017-12-17T10:43:01.480Z,-3.64
2017-12-17T10:44:01.348Z,-3.57
2017-12-17T10:45:01.214Z,-3.89
2017-12-17T10:46:01.079Z,-3.84
2017-12-17T10:47:00.965Z,-3.80
2017-12-17T10:48:00.810Z,-3.70
2017-12-17T10:49:00.684Z,-3.89
2017-12-17T10:50:00.544Z,-3.81
2017-12-17T10:51:00.410Z,-3.81
2017-12-17T10:52:00.276Z,-3.89
2017-12-17T10:53:00.140Z,-3.65
2017-12-17T10:54:00.008Z,-3.72
2017-12-17T10:54:59.888Z,-3.70
2017-12-17T10:55:59.738Z,-3.50
2017-12-17T10:56:59.604Z,-3.54
2017-12-17T10:57:59.472Z,-3.51
2017-12-17T10:58:59.341Z,-3.36
2017-12-17T10:59:59.204Z,-3.29
2017-12-17T11:00:59.088Z,-3.15
2017-12-17T11:01:58.934Z,-3.17
2017-12-17T11:02:58.847Z,-3.18
2017-12-17T11:03:58.683Z,-3.15
2017-12-17T11:04:58.535Z,-3.15
2017-12-17T11:05:58.404Z,-3.22
2017-12-17T11:06:58.267Z,-3.29
2017-12-17T11:07:58.132Z,-3.31
2017-12-17T11:08:58.000Z,-3.31
2017-12-17T11:09:57.864Z,-3.60
2017-12-17T11:10:57.732Z,-3.76
2017-12-17T11:11:57.599Z,-3.76
2017-12-17T11:12:57.475Z,-3.78
2017-12-17T11:13:57.350Z,-3.80
2017-12-17T11:14:57.199Z,-3.65
2017-12-17T11:15:57.075Z,-3.68
2017-12-17T11:16:56.931Z,-3.75
2017-12-17T11:17:56.799Z,-3.64
2017-12-17T11:18:56.696Z,-3.76
2017-12-17T11:19:56.530Z,-3.64
2017-12-17T11:20:56.399Z,-3.51
2017-12-17T11:21:56.294Z,-3.50
2017-12-17T11:22:56.845Z,-3.41
2017-12-17T11:23:55.999Z,-3.31
2017-12-17T11:24:58.915Z,-3.36
2017-12-17T11:25:55.739Z,-3.28
2017-12-17T11:26:55.599Z,-3.31
2017-12-17T11:27:55.470Z,-3.10
2017-12-17T11:28:55.333Z,-3.11
2017-12-17T11:29:55.200Z,-3.00
2017-12-17T11:30:55.067Z,-3.02
2017-12-17T11:31:54.934Z,-3.00
2017-12-17T11:32:54.801Z,-3.18
2017-12-17T11:33:54.666Z,-3.25
2017-12-17T11:34:54.535Z,-3.41
2017-12-17T11:35:54.450Z,-3.18
2017-12-17T11:36:54.268Z,-2.86
2017-12-17T11:37:54.135Z,-2.64
2017-12-17T11:38:54.001Z,-2.58
2017-12-17T11:39:53.867Z,-2.40
2017-12-17T11:40:53.736Z,-2.32
2017-12-17T11:41:53.602Z,-2.00
2017-12-17T11:42:53.506Z,-1.96
2017-12-17T11:43:53.369Z,-1.59
2017-12-17T11:44:53.210Z,-1.42
2017-12-17T11:45:53.073Z,-1.56
2017-12-17T11:46:52.985Z,-1.84
2017-12-17T11:47:52.808Z,-1.87
2017-12-17T11:48:52.676Z,-1.85
2017-12-17T11:49:52.543Z,-1.92
2017-12-17T11:50:52.412Z,-1.90
2017-12-17T11:51:52.278Z,-2.02
2017-12-17T11:52:52.146Z,-2.23
2017-12-17T11:53:52.011Z,-2.36
2017-12-17T11:54:51.888Z,-2.53
2017-12-17T11:55:51.748Z,-2.54
2017-12-17T11:56:51.617Z,-2.50
2017-12-17T11:57:51.483Z,-2.68
2017-12-17T11:58:51.353Z,-2.69
2017-12-17T11:59:51.398Z,-2.66
2017-12-17T12:00:51.089Z,-2.72
2017-12-17T12:01:50.957Z,-2.81
2017-12-17T12:02:50.821Z,-2.68
2017-12-17T12:03:50.692Z,-2.76
2017-12-17T12:04:50.560Z,-2.71
2017-12-17T12:05:50.436Z,-2.89
2017-12-17T12:06:50.293Z,-2.90
2017-12-17T12:07:50.160Z,-2.90
2017-12-17T12:08:50.046Z,-2.93
2017-12-17T12:09:49.933Z,-3.05
2017-12-17T12:10:49.822Z,-3.00
2017-12-17T12:11:49.630Z,-2.99
2017-12-17T12:12:49.494Z,-3.04
2017-12-17T12:13:49.364Z,-3.04
2017-12-17T12:14:49.229Z,-3.17
2017-12-17T12:15:49.096Z,-3.04
2017-12-17T12:16:48.966Z,-3.05
2017-12-17T12:17:48.830Z,-3.10
2017-12-17T12:18:48.697Z,-3.11
2017-12-17T12:19:48.564Z,-3.14
2017-12-17T12:20:48.435Z,-3.18
2017-12-17T12:21:48.298Z,-3.07
2017-12-17T12:22:48.164Z,-3.31
2017-12-17T12:23:48.034Z,-3.29
2017-12-17T12:24:47.901Z,-3.39
2017-12-17T12:25:47.766Z,-3.50
2017-12-17T12:26:47.633Z,-3.47
2017-12-17T12:27:47.498Z,-3.41
2017-12-17T12:28:47.366Z,-3.46
2017-12-17T12:29:47.235Z,-3.39
2017-12-17T12:30:47.100Z,-3.41
2017-12-17T12:31:46.969Z,-3.44
2017-12-17T12:32:46.836Z,-3.32
2017-12-17T12:33:46.702Z,-3.39
2017-12-17T12:34:46.568Z,-3.46
2017-12-17T12:35:46.438Z,-3.62
2017-12-17T12:36:46.301Z,-3.67
2017-12-17T12:37:46.169Z,-3.68
2017-12-17T12:38:46.035Z,-3.81
2017-12-17T12:39:45.901Z,-3.81
2017-12-17T12:40:45.770Z,-3.71
2017-12-17T12:41:45.635Z,-3.57
2017-12-17T12:42:45.500Z,-3.50
2017-12-17T12:43:45.366Z,-3.49
2017-12-17T12:44:45.235Z,-3.39
2017-12-17T12:45:45.101Z,-3.32
2017-12-17T12:46:44.967Z,-3.25
2017-12-17T12:47:44.833Z,-3.14
2017-12-17T12:48:44.698Z,-3.10
2017-12-17T12:49:44.614Z,-3.08
2017-12-17T12:50:44.431Z,-2.99
2017-12-17T12:51:44.299Z,-3.02
2017-12-17T12:52:44.165Z,-2.93
2017-12-17T12:53:44.036Z,-2.93
2017-12-17T12:54:43.900Z,-3.02
2017-12-17T12:55:43.762Z,-3.05
2017-12-17T12:56:43.631Z,-3.15
2017-12-17T12:57:43.499Z,-3.29
2017-12-17T12:58:43.366Z,-3.28
2017-12-17T12:59:43.233Z,-3.64
2017-12-17T13:00:43.099Z,-3.56
2017-12-17T13:01:42.964Z,-3.53
2017-12-17T13:02:42.904Z,-3.44
2017-12-17T13:03:42.700Z,-3.22
2017-12-17T13:04:42.566Z,-3.07
2017-12-17T13:05:42.432Z,-3.00
2017-12-17T13:06:42.300Z,-2.96
2017-12-17T13:07:42.167Z,-2.75
2017-12-17T13:08:42.036Z,-2.79
2017-12-17T13:09:41.901Z,-2.68
2017-12-17T13:10:41.768Z,-2.66
2017-12-17T13:11:41.635Z,-2.93
2017-12-17T13:12:41.504Z,-3.00
2017-12-17T13:13:41.370Z,-3.22
2017-12-17T13:14:41.238Z,-3.25
2017-12-17T13:15:41.105Z,-3.14
2017-12-17T13:16:40.973Z,-3.15
2017-12-17T13:17:40.836Z,-3.25
2017-12-17T13:18:40.706Z,-3.46
2017-12-17T13:19:40.572Z,-3.78
2017-12-17T13:20:40.442Z,-3.94
2017-12-17T13:21:40.307Z,-3.96
2017-12-17T13:22:40.173Z,-4.01
2017-12-17T13:23:40.039Z,-4.04
2017-12-17T13:24:39.907Z,-4.11
2017-12-17T13:25:39.777Z,-4.15
2017-12-17T13:26:39.668Z,-4.20
2017-12-17T13:27:39.507Z,-4.25
2017-12-17T13:28:39.372Z,-4.28
2017-12-17T13:29:39.235Z,-4.32
2017-12-17T13:30:39.104Z,-4.29
2017-12-17T13:31:38.970Z,-4.15
2017-12-17T13:32:38.836Z,-4.22
2017-12-17T13:33:38.702Z,-4.14
2017-12-17T13:34:38.566Z,-4.26
2017-12-17T13:35:38.434Z,-4.32
2017-12-17T13:36:38.301Z,-4.20
2017-12-17T13:37:38.172Z,-4.11
2017-12-17T13:38:38.030Z,-4.04
2017-12-17T13:39:37.896Z,-3.99
2017-12-17T13:40:37.764Z,-3.91
2017-12-17T13:41:37.671Z,-3.91
2017-12-17T13:42:37.496Z,-3.93
2017-12-17T13:43:37.370Z,-3.91
2017-12-17T13:44:37.227Z,-3.90
2017-12-17T13:45:37.101Z,-4.01
2017-12-17T13:46:36.959Z,-4.01
2017-12-17T13:47:36.824Z,-3.98
2017-12-17T13:48:36.689Z,-3.99
2017-12-17T13:49:36.554Z,-3.99
2017-12-17T13:50:36.419Z,-4.05
2017-12-17T13:51:36.304Z,-4.02
2017-12-17T13:52:36.161Z,-3.93
2017-12-17T13:53:36.020Z,-3.89
2017-12-17T13:54:35.885Z,-3.78
2017-12-17T13:55:35.752Z,-3.83
2017-12-17T13:56:35.616Z,-3.75
2017-12-17T13:57:35.482Z,-3.83
2017-12-17T13:58:35.392Z,-3.87
2017-12-17T13:59:35.219Z,-3.84
2017-12-17T14:00:35.100Z,-3.84
2017-12-17T14:01:34.947Z,-4.02
2017-12-17T14:02:34.812Z,-3.94
2017-12-17T14:03:34.685Z,-3.96
2017-12-17T14:04:34.544Z,-4.02
2017-12-17T14:05:34.418Z,-4.11
2017-12-17T14:06:34.283Z,-4.05
2017-12-17T14:07:34.143Z,-4.18
2017-12-17T14:08:34.035Z,-4.26
2017-12-17T14:09:33.887Z,-4.22
2017-12-17T14:10:33.741Z,-4.22
2017-12-17T14:11:33.607Z,-4.11
2017-12-17T14:12:33.474Z,-4.11
2017-12-17T14:13:33.408Z,-4.22
2017-12-17T14:14:33.210Z,-4.32
2017-12-17T14:15:33.075Z,-4.33
2017-12-17T14:16:32.941Z,-4.33
2017-12-17T14:17:32.878Z,-4.33
2017-12-17T14:18:32.719Z,-4.29
2017-12-17T14:19:32.540Z,-4.23
2017-12-17T14:20:32.400Z,-4.19
2017-12-17T14:21:32.269Z,-4.25
2017-12-17T14:22:32.136Z,-4.32
2017-12-17T14:23:31.995Z,-4.26